XNO56G EGGD-LPPR
Flight info
| Callsign | XNO56G |
|---|---|
| Flight time | 1h 47m |
| Altitude | 35000 |
| Route | EXMOR N92 DAWLY DCT BHD DCT SALCO DCT COQUE DCT KORUL DCT ELTEP T328 ASPOR |
| Aircraft | A320/M-SDE3FGHIRWY/LB1 |
Departure
| Time | 2026-05-06 09:34 |
|---|---|
| Airport | Bristol Airport (EGGD) |
Arrival
| Time | 2026-05-06 11:21 |
|---|---|
| Airport | Francisco de Sá Carneiro Airport (LPPR) |
| Time | Latitude | Longitude | Altitude | Speed | Heading |
|---|---|---|---|---|---|
| 2026-05-06 08:49 | 51.38548 | -2.71142 | 615 ft | 0 kts | 356° |
| 2026-05-06 09:20 | 51.38546 | -2.71141 | 614 ft | 2 kts | 356° |
| 2026-05-06 09:21 | 51.38521 | -2.71138 | 620 ft | 4 kts | 356° |
| 2026-05-06 09:21 | 51.38494 | -2.71134 | 627 ft | 4 kts | 356° |
| 2026-05-06 09:21 | 51.38473 | -2.71132 | 624 ft | 4 kts | 345° |
| 2026-05-06 09:21 | 51.38458 | -2.71113 | 629 ft | 3 kts | 266° |
| 2026-05-06 09:22 | 51.38459 | -2.71072 | 623 ft | 4 kts | 268° |
| 2026-05-06 09:22 | 51.38460 | -2.71046 | 615 ft | 0 kts | 267° |
| 2026-05-06 09:27 | 51.38459 | -2.71052 | 615 ft | 4 kts | 267° |
| 2026-05-06 09:27 | 51.38457 | -2.71133 | 614 ft | 8 kts | 266° |
| 2026-05-06 09:28 | 51.38454 | -2.71213 | 614 ft | 7 kts | 266° |
| 2026-05-06 09:28 | 51.38449 | -2.71317 | 615 ft | 11 kts | 266° |
| 2026-05-06 09:28 | 51.38443 | -2.71477 | 625 ft | 18 kts | 266° |
| 2026-05-06 09:28 | 51.38435 | -2.71710 | 621 ft | 22 kts | 266° |
| 2026-05-06 09:29 | 51.38430 | -2.71949 | 616 ft | 22 kts | 272° |
| 2026-05-06 09:29 | 51.38423 | -2.72211 | 625 ft | 26 kts | 266° |
| 2026-05-06 09:29 | 51.38412 | -2.72504 | 616 ft | 27 kts | 266° |
| 2026-05-06 09:29 | 51.38401 | -2.72790 | 618 ft | 20 kts | 266° |
| 2026-05-06 09:30 | 51.38393 | -2.72998 | 620 ft | 17 kts | 266° |
| 2026-05-06 09:30 | 51.38388 | -2.73139 | 621 ft | 9 kts | 266° |
| 2026-05-06 09:30 | 51.38387 | -2.73162 | 621 ft | 0 kts | 266° |
| 2026-05-06 09:30 | 51.38386 | -2.73167 | 621 ft | 2 kts | 266° |
| 2026-05-06 09:31 | 51.38386 | -2.73173 | 621 ft | 0 kts | 265° |
| 2026-05-06 09:32 | 51.38374 | -2.73276 | 631 ft | 18 kts | 246° |
| 2026-05-06 09:32 | 51.38282 | -2.73345 | 624 ft | 13 kts | 178° |
| 2026-05-06 09:32 | 51.38222 | -2.73282 | 631 ft | 9 kts | 116° |
| 2026-05-06 09:33 | 51.38216 | -2.73215 | 630 ft | 1 kts | 89° |
| 2026-05-06 09:33 | 51.38218 | -2.73149 | 630 ft | 25 kts | 86° |
| 2026-05-06 09:33 | 51.38247 | -2.72446 | 629 ft | 99 kts | 86° |
| 2026-05-06 09:33 | 51.38302 | -2.71049 | 736 ft | 143 kts | 83° |
| 2026-05-06 09:34 | 51.38348 | -2.69496 | 1540 ft | 138 kts | 85° |
| 2026-05-06 09:34 | 51.38384 | -2.67946 | 2259 ft | 143 kts | 85° |
| 2026-05-06 09:34 | 51.38436 | -2.66271 | 2671 ft | 160 kts | 85° |
| 2026-05-06 09:34 | 51.38501 | -2.64397 | 2993 ft | 178 kts | 85° |
| 2026-05-06 09:35 | 51.38558 | -2.62290 | 3181 ft | 202 kts | 86° |
| 2026-05-06 09:35 | 51.38627 | -2.59877 | 3435 ft | 231 kts | 85° |
| 2026-05-06 09:35 | 51.38683 | -2.57189 | 3911 ft | 250 kts | 93° |
| 2026-05-06 09:35 | 51.38167 | -2.54478 | 4633 ft | 262 kts | 120° |
| 2026-05-06 09:36 | 51.36916 | -2.52368 | 5400 ft | 271 kts | 148° |
| 2026-05-06 09:36 | 51.35137 | -2.51331 | 5875 ft | 276 kts | 175° |
| 2026-05-06 09:36 | 51.33267 | -2.51772 | 5988 ft | 273 kts | 205° |
| 2026-05-06 09:36 | 51.31760 | -2.53543 | 6004 ft | 270 kts | 232° |
| 2026-05-06 09:37 | 51.30923 | -2.56178 | 6006 ft | 267 kts | 259° |
| 2026-05-06 09:37 | 51.30734 | -2.59119 | 6007 ft | 267 kts | 268° |
| 2026-05-06 09:37 | 51.30630 | -2.62084 | 6010 ft | 267 kts | 268° |
| 2026-05-06 09:37 | 51.30533 | -2.65049 | 6004 ft | 267 kts | 268° |
| 2026-05-06 09:38 | 51.30434 | -2.68018 | 6009 ft | 268 kts | 268° |
| 2026-05-06 09:38 | 51.30329 | -2.70987 | 6011 ft | 268 kts | 267° |
| 2026-05-06 09:38 | 51.30222 | -2.73915 | 6010 ft | 268 kts | 267° |
| 2026-05-06 09:38 | 51.30113 | -2.76888 | 6011 ft | 268 kts | 267° |
| 2026-05-06 09:39 | 51.30002 | -2.79866 | 6006 ft | 268 kts | 267° |
| 2026-05-06 09:39 | 51.29892 | -2.82840 | 6009 ft | 268 kts | 267° |
| 2026-05-06 09:39 | 51.29782 | -2.85823 | 6139 ft | 272 kts | 267° |
| 2026-05-06 09:39 | 51.29669 | -2.88837 | 7038 ft | 272 kts | 267° |
| 2026-05-06 09:40 | 51.29554 | -2.91858 | 7880 ft | 274 kts | 267° |
| 2026-05-06 09:40 | 51.29437 | -2.94925 | 8692 ft | 278 kts | 268° |
| 2026-05-06 09:40 | 51.28823 | -3.01105 | 10245 ft | 289 kts | 250° |
| 2026-05-06 09:41 | 51.27935 | -3.04083 | 10626 ft | 308 kts | 245° |
| 2026-05-06 09:41 | 51.26955 | -3.07219 | 10816 ft | 331 kts | 245° |
| 2026-05-06 09:41 | 51.25883 | -3.10625 | 10957 ft | 354 kts | 245° |
| 2026-05-06 09:41 | 51.24754 | -3.14199 | 11394 ft | 365 kts | 245° |
| 2026-05-06 09:42 | 51.23604 | -3.17837 | 12024 ft | 369 kts | 244° |
| 2026-05-06 09:42 | 51.22438 | -3.21511 | 12700 ft | 373 kts | 244° |
| 2026-05-06 09:42 | 51.21257 | -3.25219 | 13376 ft | 377 kts | 244° |
| 2026-05-06 09:42 | 51.19983 | -3.28891 | 13988 ft | 381 kts | 237° |
| 2026-05-06 09:43 | 51.18260 | -3.32128 | 14575 ft | 386 kts | 224° |
| 2026-05-06 09:43 | 51.16098 | -3.34694 | 15158 ft | 390 kts | 211° |
| 2026-05-06 09:43 | 51.13601 | -3.36420 | 15754 ft | 394 kts | 197° |
| 2026-05-06 09:43 | 51.10932 | -3.37213 | 16318 ft | 398 kts | 187° |
| 2026-05-06 09:44 | 51.08171 | -3.37680 | 16889 ft | 400 kts | 187° |
| 2026-05-06 09:44 | 51.05397 | -3.38152 | 17422 ft | 403 kts | 187° |
| 2026-05-06 09:44 | 51.02600 | -3.38633 | 17980 ft | 406 kts | 187° |
| 2026-05-06 09:44 | 50.99788 | -3.39121 | 18497 ft | 408 kts | 188° |
| 2026-05-06 09:45 | 50.96955 | -3.39611 | 18976 ft | 410 kts | 188° |
| 2026-05-06 09:45 | 50.94113 | -3.40102 | 19447 ft | 412 kts | 188° |
| 2026-05-06 09:45 | 50.91259 | -3.40597 | 19908 ft | 414 kts | 188° |
| 2026-05-06 09:45 | 50.88384 | -3.41075 | 20374 ft | 417 kts | 187° |
| 2026-05-06 09:46 | 50.85485 | -3.41459 | 20822 ft | 419 kts | 186° |
| 2026-05-06 09:46 | 50.82571 | -3.41767 | 21268 ft | 421 kts | 185° |
| 2026-05-06 09:46 | 50.79632 | -3.42041 | 21707 ft | 424 kts | 185° |
| 2026-05-06 09:46 | 50.76682 | -3.42310 | 22134 ft | 426 kts | 185° |
| 2026-05-06 09:47 | 50.73755 | -3.42586 | 22546 ft | 428 kts | 185° |
| 2026-05-06 09:47 | 50.70776 | -3.42879 | 22958 ft | 430 kts | 185° |
| 2026-05-06 09:47 | 50.67779 | -3.43186 | 23356 ft | 433 kts | 185° |
| 2026-05-06 09:47 | 50.64764 | -3.43505 | 23721 ft | 435 kts | 185° |
| 2026-05-06 09:48 | 50.61735 | -3.43830 | 24053 ft | 438 kts | 185° |
| 2026-05-06 09:48 | 50.58690 | -3.44161 | 24381 ft | 440 kts | 185° |
| 2026-05-06 09:48 | 50.55629 | -3.44492 | 24690 ft | 442 kts | 185° |
| 2026-05-06 09:48 | 50.52548 | -3.44820 | 24997 ft | 445 kts | 185° |
| 2026-05-06 09:49 | 50.49451 | -3.45144 | 25291 ft | 447 kts | 185° |
| 2026-05-06 09:49 | 50.46340 | -3.45464 | 25589 ft | 449 kts | 185° |
| 2026-05-06 09:49 | 50.43214 | -3.45787 | 25865 ft | 451 kts | 185° |
| 2026-05-06 09:49 | 50.40071 | -3.46114 | 26145 ft | 454 kts | 185° |
| 2026-05-06 09:50 | 50.36916 | -3.46445 | 26418 ft | 456 kts | 185° |
| 2026-05-06 09:50 | 50.33786 | -3.46772 | 26683 ft | 458 kts | 185° |
| 2026-05-06 09:50 | 50.30603 | -3.47104 | 26949 ft | 460 kts | 185° |
| 2026-05-06 09:50 | 50.27403 | -3.47439 | 27208 ft | 462 kts | 185° |
| 2026-05-06 09:51 | 50.24187 | -3.47774 | 27463 ft | 464 kts | 185° |
| 2026-05-06 09:51 | 50.20961 | -3.48110 | 27733 ft | 466 kts | 185° |
| 2026-05-06 09:51 | 50.17729 | -3.48444 | 28106 ft | 465 kts | 185° |
| 2026-05-06 09:51 | 50.14502 | -3.48775 | 28474 ft | 464 kts | 185° |
| 2026-05-06 09:52 | 50.11276 | -3.49109 | 28835 ft | 464 kts | 185° |
| 2026-05-06 09:52 | 50.08098 | -3.49438 | 29188 ft | 464 kts | 185° |
| 2026-05-06 09:52 | 50.04876 | -3.49769 | 29548 ft | 464 kts | 185° |
| 2026-05-06 09:52 | 50.01659 | -3.50099 | 29899 ft | 464 kts | 185° |
| 2026-05-06 09:53 | 49.98439 | -3.50428 | 30228 ft | 464 kts | 185° |
| 2026-05-06 09:53 | 49.95221 | -3.50759 | 30539 ft | 463 kts | 185° |
| 2026-05-06 09:53 | 49.92011 | -3.51090 | 30874 ft | 462 kts | 185° |
| 2026-05-06 09:53 | 49.88808 | -3.51418 | 31196 ft | 461 kts | 185° |
| 2026-05-06 09:54 | 49.85613 | -3.51745 | 31512 ft | 460 kts | 185° |
| 2026-05-06 09:54 | 49.82422 | -3.52070 | 31837 ft | 459 kts | 185° |
| 2026-05-06 09:54 | 49.79282 | -3.52391 | 32158 ft | 458 kts | 185° |
| 2026-05-06 09:54 | 49.76103 | -3.52739 | 32481 ft | 457 kts | 187° |
| 2026-05-06 09:55 | 49.72985 | -3.53591 | 32793 ft | 455 kts | 196° |
| 2026-05-06 09:55 | 49.69984 | -3.55101 | 32975 ft | 453 kts | 202° |
| 2026-05-06 09:55 | 49.64085 | -3.58525 | 32999 ft | 452 kts | 202° |
| 2026-05-06 09:56 | 49.59185 | -3.61374 | 33333 ft | 453 kts | 202° |
| 2026-05-06 09:56 | 49.56239 | -3.63084 | 33668 ft | 452 kts | 202° |
| 2026-05-06 09:56 | 49.52346 | -3.65338 | 34049 ft | 451 kts | 201° |
| 2026-05-06 09:57 | 49.49404 | -3.67028 | 34313 ft | 451 kts | 201° |
| 2026-05-06 09:57 | 49.46462 | -3.68712 | 34568 ft | 451 kts | 201° |
| 2026-05-06 09:57 | 49.44518 | -3.69822 | 34728 ft | 451 kts | 201° |
| 2026-05-06 09:57 | 49.41578 | -3.71504 | 34935 ft | 451 kts | 201° |
| 2026-05-06 09:58 | 49.35677 | -3.74878 | 35000 ft | 454 kts | 201° |
| 2026-05-06 09:58 | 49.29756 | -3.78266 | 35000 ft | 455 kts | 201° |
| 2026-05-06 09:59 | 49.22863 | -3.82189 | 35002 ft | 455 kts | 201° |
| 2026-05-06 09:59 | 49.17927 | -3.84996 | 35002 ft | 455 kts | 201° |
| 2026-05-06 10:00 | 49.11992 | -3.88360 | 35000 ft | 455 kts | 201° |
| 2026-05-06 10:00 | 49.06057 | -3.91713 | 34993 ft | 455 kts | 201° |
| 2026-05-06 10:01 | 49.00124 | -3.95067 | 34989 ft | 455 kts | 201° |
| 2026-05-06 10:01 | 48.94187 | -3.98410 | 34989 ft | 455 kts | 201° |
| 2026-05-06 10:02 | 48.88289 | -4.01717 | 34985 ft | 455 kts | 201° |
| 2026-05-06 10:02 | 48.82348 | -4.05035 | 34977 ft | 455 kts | 201° |
| 2026-05-06 10:03 | 48.76409 | -4.08347 | 34988 ft | 455 kts | 201° |
| 2026-05-06 10:03 | 48.70470 | -4.11652 | 34988 ft | 455 kts | 201° |
| 2026-05-06 10:04 | 48.64566 | -4.14936 | 34987 ft | 455 kts | 201° |
| 2026-05-06 10:04 | 48.58620 | -4.18236 | 34985 ft | 455 kts | 201° |
| 2026-05-06 10:05 | 48.52666 | -4.21525 | 34983 ft | 456 kts | 201° |
| 2026-05-06 10:05 | 48.46706 | -4.24799 | 34983 ft | 456 kts | 201° |
| 2026-05-06 10:06 | 48.40781 | -4.28058 | 34983 ft | 456 kts | 201° |
| 2026-05-06 10:06 | 48.34813 | -4.31333 | 34987 ft | 457 kts | 201° |
| 2026-05-06 10:07 | 48.28838 | -4.34596 | 34984 ft | 457 kts | 201° |
| 2026-05-06 10:07 | 48.22854 | -4.37860 | 34990 ft | 458 kts | 201° |
| 2026-05-06 10:08 | 48.16866 | -4.41126 | 34985 ft | 458 kts | 201° |
| 2026-05-06 10:08 | 48.10912 | -4.44363 | 34985 ft | 459 kts | 200° |
| 2026-05-06 10:09 | 48.04910 | -4.47612 | 34966 ft | 459 kts | 200° |
| 2026-05-06 10:09 | 47.98902 | -4.50865 | 34970 ft | 460 kts | 200° |
| 2026-05-06 10:10 | 47.92923 | -4.54085 | 34975 ft | 460 kts | 200° |
| 2026-05-06 10:10 | 47.86888 | -4.57319 | 34980 ft | 461 kts | 200° |
| 2026-05-06 10:11 | 47.80850 | -4.60555 | 34984 ft | 461 kts | 200° |
| 2026-05-06 10:11 | 47.74805 | -4.63802 | 34993 ft | 462 kts | 200° |
| 2026-05-06 10:12 | 47.68787 | -4.67005 | 34999 ft | 463 kts | 200° |
| 2026-05-06 10:12 | 47.62722 | -4.70225 | 34998 ft | 463 kts | 200° |
| 2026-05-06 10:13 | 47.56654 | -4.73448 | 35003 ft | 463 kts | 200° |
| 2026-05-06 10:13 | 47.50583 | -4.76668 | 35005 ft | 464 kts | 200° |
| 2026-05-06 10:14 | 47.44499 | -4.79880 | 35007 ft | 464 kts | 200° |
| 2026-05-06 10:14 | 47.38459 | -4.83065 | 35008 ft | 464 kts | 200° |
| 2026-05-06 10:15 | 47.32374 | -4.86266 | 35012 ft | 464 kts | 200° |
| 2026-05-06 10:15 | 47.26289 | -4.89452 | 35009 ft | 464 kts | 200° |
| 2026-05-06 10:16 | 47.20196 | -4.92648 | 35015 ft | 465 kts | 200° |
| 2026-05-06 10:16 | 47.14141 | -4.95815 | 35013 ft | 465 kts | 200° |
| 2026-05-06 10:17 | 47.08086 | -4.99144 | 35018 ft | 464 kts | 206° |
| 2026-05-06 10:17 | 47.02523 | -5.03916 | 35019 ft | 464 kts | 212° |
| 2026-05-06 10:18 | 46.97057 | -5.08833 | 35022 ft | 464 kts | 212° |
| 2026-05-06 10:18 | 46.91542 | -5.13772 | 35025 ft | 465 kts | 212° |
| 2026-05-06 10:19 | 46.86020 | -5.18707 | 35032 ft | 465 kts | 212° |
| 2026-05-06 10:19 | 46.80499 | -5.23635 | 35030 ft | 465 kts | 212° |
| 2026-05-06 10:20 | 46.74975 | -5.28552 | 35039 ft | 465 kts | 212° |
| 2026-05-06 10:20 | 46.69483 | -5.33425 | 35032 ft | 465 kts | 212° |
| 2026-05-06 10:21 | 46.63958 | -5.38321 | 35041 ft | 465 kts | 212° |
| 2026-05-06 10:21 | 46.58428 | -5.43213 | 35040 ft | 465 kts | 212° |
| 2026-05-06 10:22 | 46.52894 | -5.48090 | 35037 ft | 465 kts | 212° |
| 2026-05-06 10:22 | 46.47393 | -5.52921 | 35033 ft | 465 kts | 212° |
| 2026-05-06 10:23 | 46.41863 | -5.57779 | 35041 ft | 465 kts | 212° |
| 2026-05-06 10:23 | 46.36331 | -5.62625 | 35043 ft | 465 kts | 212° |
| 2026-05-06 10:24 | 46.30797 | -5.67459 | 35040 ft | 464 kts | 212° |
| 2026-05-06 10:24 | 46.25300 | -5.72242 | 35047 ft | 464 kts | 212° |
| 2026-05-06 10:25 | 46.19769 | -5.77050 | 35044 ft | 464 kts | 212° |
| 2026-05-06 10:25 | 46.14236 | -5.81852 | 35046 ft | 464 kts | 212° |
| 2026-05-06 10:26 | 46.08702 | -5.86637 | 35046 ft | 464 kts | 212° |
| 2026-05-06 10:26 | 46.03168 | -5.91402 | 35047 ft | 463 kts | 212° |
| 2026-05-06 10:27 | 45.97671 | -5.96126 | 35037 ft | 463 kts | 212° |
| 2026-05-06 10:27 | 45.92139 | -6.00881 | 35039 ft | 463 kts | 212° |
| 2026-05-06 10:28 | 45.86612 | -6.05628 | 35041 ft | 463 kts | 212° |
| 2026-05-06 10:28 | 45.81080 | -6.10362 | 35046 ft | 463 kts | 212° |
| 2026-05-06 10:29 | 45.75585 | -6.15046 | 35043 ft | 463 kts | 212° |
| 2026-05-06 10:29 | 45.70048 | -6.19745 | 35040 ft | 463 kts | 212° |
| 2026-05-06 10:30 | 45.64510 | -6.24441 | 35042 ft | 463 kts | 212° |
| 2026-05-06 10:30 | 45.58971 | -6.29126 | 35038 ft | 463 kts | 212° |
| 2026-05-06 10:31 | 45.53471 | -6.33779 | 35041 ft | 463 kts | 212° |
| 2026-05-06 10:31 | 45.47936 | -6.38456 | 35040 ft | 463 kts | 212° |
| 2026-05-06 10:32 | 45.42391 | -6.43117 | 35036 ft | 463 kts | 212° |
| 2026-05-06 10:32 | 45.36843 | -6.47764 | 35041 ft | 463 kts | 212° |
| 2026-05-06 10:33 | 45.31323 | -6.52379 | 35039 ft | 463 kts | 212° |
| 2026-05-06 10:33 | 45.25767 | -6.57027 | 35035 ft | 463 kts | 212° |
| 2026-05-06 10:34 | 45.20204 | -6.61667 | 35049 ft | 464 kts | 212° |
| 2026-05-06 10:34 | 45.14641 | -6.66291 | 35044 ft | 464 kts | 212° |
| 2026-05-06 10:35 | 45.09111 | -6.70876 | 35051 ft | 464 kts | 212° |
| 2026-05-06 10:35 | 45.03537 | -6.75495 | 35049 ft | 464 kts | 212° |
| 2026-05-06 10:36 | 44.97959 | -6.80095 | 35047 ft | 464 kts | 212° |
| 2026-05-06 10:36 | 44.92382 | -6.84692 | 35049 ft | 464 kts | 212° |
| 2026-05-06 10:37 | 44.86800 | -6.89280 | 35051 ft | 464 kts | 212° |
| 2026-05-06 10:37 | 44.80959 | -6.93008 | 35046 ft | 467 kts | 197° |
| 2026-05-06 10:38 | 44.74755 | -6.95496 | 35066 ft | 457 kts | 197° |
| 2026-05-06 10:38 | 44.68676 | -6.97950 | 35065 ft | 453 kts | 197° |
| 2026-05-06 10:39 | 44.62624 | -7.00404 | 35064 ft | 453 kts | 197° |
| 2026-05-06 10:39 | 44.56615 | -7.02814 | 35064 ft | 452 kts | 197° |
| 2026-05-06 10:40 | 44.50555 | -7.05234 | 35062 ft | 452 kts | 197° |
| 2026-05-06 10:40 | 44.44499 | -7.07651 | 35067 ft | 453 kts | 197° |
| 2026-05-06 10:41 | 44.38444 | -7.10067 | 35066 ft | 452 kts | 197° |
| 2026-05-06 10:41 | 44.32395 | -7.12479 | 35064 ft | 452 kts | 197° |
| 2026-05-06 10:42 | 44.26389 | -7.14865 | 35064 ft | 452 kts | 197° |
| 2026-05-06 10:42 | 44.20346 | -7.17259 | 35061 ft | 451 kts | 197° |
| 2026-05-06 10:43 | 44.14300 | -7.19647 | 35058 ft | 451 kts | 197° |
| 2026-05-06 10:44 | 44.05227 | -7.23218 | 35062 ft | 452 kts | 197° |
| 2026-05-06 10:44 | 43.99223 | -7.25580 | 35062 ft | 452 kts | 197° |
| 2026-05-06 10:45 | 43.93172 | -7.27957 | 35063 ft | 452 kts | 197° |
| 2026-05-06 10:45 | 43.87121 | -7.30327 | 35061 ft | 452 kts | 198° |
| 2026-05-06 10:46 | 43.81070 | -7.32692 | 35063 ft | 452 kts | 198° |
| 2026-05-06 10:46 | 43.75055 | -7.35032 | 35063 ft | 452 kts | 198° |
| 2026-05-06 10:47 | 43.68998 | -7.37386 | 35061 ft | 452 kts | 198° |
| 2026-05-06 10:47 | 43.62945 | -7.39736 | 35061 ft | 452 kts | 198° |
| 2026-05-06 10:48 | 43.56892 | -7.42078 | 35063 ft | 452 kts | 198° |
| 2026-05-06 10:48 | 43.50876 | -7.44411 | 35059 ft | 452 kts | 198° |
| 2026-05-06 10:49 | 43.44820 | -7.46755 | 35057 ft | 452 kts | 198° |
| 2026-05-06 10:49 | 43.38768 | -7.49081 | 35055 ft | 452 kts | 198° |
| 2026-05-06 10:50 | 43.32714 | -7.51408 | 34968 ft | 450 kts | 198° |
| 2026-05-06 10:50 | 43.29700 | -7.52566 | 34390 ft | 449 kts | 198° |
| 2026-05-06 10:50 | 43.26687 | -7.53720 | 33952 ft | 451 kts | 198° |
| 2026-05-06 10:50 | 43.23703 | -7.54858 | 33406 ft | 452 kts | 197° |
| 2026-05-06 10:51 | 43.20669 | -7.56014 | 32858 ft | 453 kts | 197° |
| 2026-05-06 10:51 | 43.17633 | -7.57174 | 32329 ft | 454 kts | 197° |
| 2026-05-06 10:51 | 43.14588 | -7.58340 | 31803 ft | 455 kts | 197° |
| 2026-05-06 10:51 | 43.11536 | -7.59507 | 31285 ft | 456 kts | 197° |
| 2026-05-06 10:52 | 43.08474 | -7.60673 | 30787 ft | 457 kts | 197° |
| 2026-05-06 10:52 | 43.05403 | -7.61839 | 30286 ft | 458 kts | 197° |
| 2026-05-06 10:52 | 43.02325 | -7.63006 | 29737 ft | 460 kts | 197° |
| 2026-05-06 10:52 | 42.99243 | -7.64177 | 29158 ft | 461 kts | 197° |
| 2026-05-06 10:53 | 42.96191 | -7.65337 | 28616 ft | 461 kts | 197° |
| 2026-05-06 10:53 | 42.93101 | -7.66511 | 28071 ft | 462 kts | 197° |
| 2026-05-06 10:53 | 42.89999 | -7.67689 | 27526 ft | 463 kts | 197° |
| 2026-05-06 10:53 | 42.86888 | -7.68866 | 27018 ft | 464 kts | 197° |
| 2026-05-06 10:54 | 42.83783 | -7.70034 | 26319 ft | 462 kts | 197° |
| 2026-05-06 10:54 | 42.80676 | -7.71200 | 25840 ft | 465 kts | 196° |
| 2026-05-06 10:54 | 42.77545 | -7.72377 | 25395 ft | 468 kts | 197° |
| 2026-05-06 10:54 | 42.74454 | -7.73541 | 24958 ft | 466 kts | 196° |
| 2026-05-06 10:55 | 42.71339 | -7.74713 | 24526 ft | 464 kts | 196° |
| 2026-05-06 10:55 | 42.68238 | -7.75879 | 24089 ft | 461 kts | 196° |
| 2026-05-06 10:55 | 42.65156 | -7.77036 | 23674 ft | 459 kts | 197° |
| 2026-05-06 10:55 | 42.62087 | -7.78189 | 23185 ft | 456 kts | 197° |
| 2026-05-06 10:56 | 42.59040 | -7.79333 | 22683 ft | 453 kts | 197° |
| 2026-05-06 10:56 | 42.56012 | -7.80473 | 22198 ft | 450 kts | 197° |
| 2026-05-06 10:56 | 42.52999 | -7.81606 | 21718 ft | 447 kts | 197° |
| 2026-05-06 10:56 | 42.50015 | -7.82724 | 21245 ft | 444 kts | 197° |
| 2026-05-06 10:57 | 42.47080 | -7.83824 | 20781 ft | 442 kts | 197° |
| 2026-05-06 10:57 | 42.44086 | -7.84946 | 20324 ft | 439 kts | 197° |
| 2026-05-06 10:57 | 42.41197 | -7.86028 | 19890 ft | 436 kts | 196° |
| 2026-05-06 10:57 | 42.38279 | -7.87120 | 19434 ft | 433 kts | 196° |
| 2026-05-06 10:58 | 42.35381 | -7.88203 | 19001 ft | 431 kts | 196° |
| 2026-05-06 10:58 | 42.32504 | -7.89275 | 18564 ft | 428 kts | 196° |
| 2026-05-06 10:58 | 42.29638 | -7.90341 | 18115 ft | 426 kts | 196° |
| 2026-05-06 10:58 | 42.26790 | -7.91400 | 17620 ft | 423 kts | 196° |
| 2026-05-06 10:59 | 42.23959 | -7.92451 | 17145 ft | 420 kts | 196° |
| 2026-05-06 10:59 | 42.21147 | -7.93492 | 16673 ft | 417 kts | 196° |
| 2026-05-06 10:59 | 42.18397 | -7.94509 | 16212 ft | 414 kts | 196° |
| 2026-05-06 10:59 | 42.15624 | -7.95535 | 15750 ft | 412 kts | 196° |
| 2026-05-06 11:00 | 42.12872 | -7.96554 | 15296 ft | 409 kts | 196° |
| 2026-05-06 11:00 | 42.10139 | -7.97566 | 14854 ft | 406 kts | 196° |
| 2026-05-06 11:00 | 42.07417 | -7.98576 | 14416 ft | 404 kts | 196° |
| 2026-05-06 11:00 | 42.04721 | -7.99577 | 13980 ft | 401 kts | 196° |
| 2026-05-06 11:01 | 42.02037 | -8.00572 | 13523 ft | 399 kts | 195° |
| 2026-05-06 11:01 | 41.99369 | -8.01559 | 13018 ft | 396 kts | 195° |
| 2026-05-06 11:01 | 41.96754 | -8.02525 | 12561 ft | 394 kts | 195° |
| 2026-05-06 11:01 | 41.94119 | -8.03491 | 12094 ft | 391 kts | 195° |
| 2026-05-06 11:02 | 41.91498 | -8.04450 | 11635 ft | 389 kts | 195° |
| 2026-05-06 11:02 | 41.88895 | -8.05403 | 11195 ft | 387 kts | 195° |
| 2026-05-06 11:02 | 41.86321 | -8.06347 | 10751 ft | 379 kts | 195° |
| 2026-05-06 11:02 | 41.83834 | -8.07260 | 10584 ft | 363 kts | 196° |
| 2026-05-06 11:03 | 41.81493 | -8.08341 | 10358 ft | 350 kts | 203° |
| 2026-05-06 11:03 | 41.79339 | -8.09740 | 10140 ft | 338 kts | 210° |
| 2026-05-06 11:03 | 41.77319 | -8.11266 | 9938 ft | 328 kts | 210° |
| 2026-05-06 11:03 | 41.75366 | -8.12732 | 9802 ft | 325 kts | 210° |
| 2026-05-06 11:04 | 41.73395 | -8.14207 | 9679 ft | 324 kts | 210° |
| 2026-05-06 11:04 | 41.71426 | -8.15669 | 9539 ft | 323 kts | 207° |
| 2026-05-06 11:04 | 41.69374 | -8.16899 | 9406 ft | 323 kts | 200° |
| 2026-05-06 11:04 | 41.67251 | -8.17877 | 9273 ft | 322 kts | 199° |
| 2026-05-06 11:05 | 41.65130 | -8.18847 | 9140 ft | 322 kts | 199° |
| 2026-05-06 11:05 | 41.63013 | -8.19815 | 8991 ft | 321 kts | 199° |
| 2026-05-06 11:05 | 41.60900 | -8.20783 | 8871 ft | 321 kts | 199° |
| 2026-05-06 11:05 | 41.58792 | -8.21749 | 8741 ft | 320 kts | 199° |
| 2026-05-06 11:06 | 41.56685 | -8.22714 | 8601 ft | 320 kts | 199° |
| 2026-05-06 11:06 | 41.54612 | -8.23661 | 8481 ft | 319 kts | 199° |
| 2026-05-06 11:06 | 41.52516 | -8.24620 | 8343 ft | 318 kts | 199° |
| 2026-05-06 11:06 | 41.50422 | -8.25576 | 8218 ft | 318 kts | 199° |
| 2026-05-06 11:07 | 41.48330 | -8.26528 | 8097 ft | 317 kts | 199° |
| 2026-05-06 11:07 | 41.46240 | -8.27479 | 7956 ft | 316 kts | 199° |
| 2026-05-06 11:07 | 41.44202 | -8.28407 | 7840 ft | 303 kts | 199° |
| 2026-05-06 11:07 | 41.42243 | -8.29299 | 7704 ft | 291 kts | 199° |
| 2026-05-06 11:08 | 41.40356 | -8.30157 | 7577 ft | 284 kts | 199° |
| 2026-05-06 11:08 | 41.38491 | -8.31002 | 7451 ft | 282 kts | 199° |
| 2026-05-06 11:08 | 41.36660 | -8.31831 | 7326 ft | 282 kts | 198° |
| 2026-05-06 11:08 | 41.34808 | -8.32670 | 7201 ft | 281 kts | 199° |
| 2026-05-06 11:09 | 41.32961 | -8.33510 | 7074 ft | 281 kts | 199° |
| 2026-05-06 11:09 | 41.31112 | -8.34353 | 6948 ft | 280 kts | 199° |
| 2026-05-06 11:09 | 41.29268 | -8.35190 | 6823 ft | 280 kts | 198° |
| 2026-05-06 11:09 | 41.27428 | -8.36022 | 6699 ft | 279 kts | 198° |
| 2026-05-06 11:10 | 41.25588 | -8.36850 | 6566 ft | 279 kts | 198° |
| 2026-05-06 11:10 | 41.23753 | -8.37677 | 6454 ft | 278 kts | 198° |
| 2026-05-06 11:10 | 41.21950 | -8.38493 | 6323 ft | 277 kts | 198° |
| 2026-05-06 11:10 | 41.20125 | -8.39316 | 6188 ft | 277 kts | 198° |
| 2026-05-06 11:11 | 41.18318 | -8.40128 | 6052 ft | 269 kts | 198° |
| 2026-05-06 11:11 | 41.16587 | -8.40908 | 5932 ft | 257 kts | 198° |
| 2026-05-06 11:11 | 41.14924 | -8.41656 | 5788 ft | 247 kts | 198° |
| 2026-05-06 11:11 | 41.13308 | -8.42384 | 5665 ft | 244 kts | 198° |
| 2026-05-06 11:12 | 41.11706 | -8.43107 | 5535 ft | 243 kts | 198° |
| 2026-05-06 11:12 | 41.10109 | -8.43828 | 5402 ft | 242 kts | 198° |
| 2026-05-06 11:12 | 41.08537 | -8.44536 | 5275 ft | 240 kts | 198° |
| 2026-05-06 11:12 | 41.06978 | -8.45237 | 5142 ft | 233 kts | 199° |
| 2026-05-06 11:13 | 41.05464 | -8.45919 | 5022 ft | 227 kts | 198° |
| 2026-05-06 11:13 | 41.03990 | -8.46583 | 4893 ft | 221 kts | 198° |
| 2026-05-06 11:13 | 41.02566 | -8.47301 | 4763 ft | 219 kts | 208° |
| 2026-05-06 11:13 | 41.01327 | -8.48458 | 4637 ft | 218 kts | 225° |
| 2026-05-06 11:14 | 41.00386 | -8.50022 | 4507 ft | 217 kts | 241° |
| 2026-05-06 11:14 | 40.99803 | -8.51855 | 4376 ft | 216 kts | 257° |
| 2026-05-06 11:14 | 40.99510 | -8.53772 | 4251 ft | 215 kts | 260° |
| 2026-05-06 11:14 | 40.99221 | -8.55716 | 4129 ft | 215 kts | 260° |
| 2026-05-06 11:15 | 40.98937 | -8.57655 | 3995 ft | 214 kts | 264° |
| 2026-05-06 11:15 | 40.99086 | -8.59568 | 3956 ft | 208 kts | 294° |
| 2026-05-06 11:15 | 40.99913 | -8.61128 | 3967 ft | 210 kts | 322° |
| 2026-05-06 11:15 | 41.01198 | -8.61945 | 3833 ft | 205 kts | 349° |
| 2026-05-06 11:16 | 41.02601 | -8.62305 | 3720 ft | 205 kts | 349° |
| 2026-05-06 11:16 | 41.04003 | -8.62672 | 3592 ft | 205 kts | 349° |
| 2026-05-06 11:16 | 41.05385 | -8.63040 | 3470 ft | 205 kts | 349° |
| 2026-05-06 11:16 | 41.06747 | -8.63403 | 3361 ft | 194 kts | 349° |
| 2026-05-06 11:17 | 41.08046 | -8.63743 | 3213 ft | 187 kts | 350° |
| 2026-05-06 11:17 | 41.09304 | -8.64072 | 3108 ft | 183 kts | 350° |
| 2026-05-06 11:17 | 41.10559 | -8.64398 | 2880 ft | 187 kts | 350° |
| 2026-05-06 11:17 | 41.11838 | -8.64730 | 2569 ft | 186 kts | 349° |
| 2026-05-06 11:18 | 41.13085 | -8.65057 | 2300 ft | 178 kts | 349° |
| 2026-05-06 11:18 | 41.14274 | -8.65369 | 2063 ft | 170 kts | 349° |
| 2026-05-06 11:18 | 41.15390 | -8.65662 | 1837 ft | 159 kts | 349° |
| 2026-05-06 11:18 | 41.16430 | -8.65933 | 1648 ft | 145 kts | 349° |
| 2026-05-06 11:19 | 41.17384 | -8.66182 | 1465 ft | 139 kts | 349° |
| 2026-05-06 11:19 | 41.18319 | -8.66427 | 1274 ft | 136 kts | 350° |
| 2026-05-06 11:19 | 41.19241 | -8.66668 | 1083 ft | 135 kts | 348° |
| 2026-05-06 11:19 | 41.20159 | -8.66909 | 907 ft | 135 kts | 348° |
| 2026-05-06 11:20 | 41.21076 | -8.67148 | 727 ft | 134 kts | 348° |
| 2026-05-06 11:20 | 41.21989 | -8.67387 | 546 ft | 134 kts | 346° |
| 2026-05-06 11:20 | 41.22903 | -8.67623 | 353 ft | 133 kts | 347° |
| 2026-05-06 11:20 | 41.23788 | -8.67864 | 223 ft | 118 kts | 348° |
| 2026-05-06 11:21 | 41.24415 | -8.68027 | 217 ft | 69 kts | 349° |
| 2026-05-06 11:21 | 41.24792 | -8.68125 | 203 ft | 50 kts | 348° |
| 2026-05-06 11:21 | 41.25063 | -8.68183 | 198 ft | 28 kts | 8° |
| 2026-05-06 11:21 | 41.25190 | -8.68141 | 191 ft | 15 kts | 17° |
| 2026-05-06 11:22 | 41.25268 | -8.68107 | 182 ft | 9 kts | 21° |
| 2026-05-06 11:22 | 41.25289 | -8.68042 | 182 ft | 7 kts | 104° |
| 2026-05-06 11:22 | 41.25263 | -8.68017 | 183 ft | 2 kts | 160° |
| 2026-05-06 11:22 | 41.25231 | -8.68007 | 189 ft | 9 kts | 168° |
| 2026-05-06 11:23 | 41.25142 | -8.67984 | 196 ft | 17 kts | 168° |
| 2026-05-06 11:23 | 41.25024 | -8.67953 | 199 ft | 15 kts | 169° |
| 2026-05-06 11:23 | 41.24921 | -8.67925 | 197 ft | 17 kts | 168° |
| 2026-05-06 11:23 | 41.24805 | -8.67862 | 209 ft | 18 kts | 149° |
| 2026-05-06 11:24 | 41.24708 | -8.67817 | 209 ft | 12 kts | 168° |
| 2026-05-06 11:24 | 41.24616 | -8.67792 | 214 ft | 22 kts | 168° |
| 2026-05-06 11:24 | 41.24444 | -8.67745 | 222 ft | 25 kts | 169° |
| 2026-05-06 11:24 | 41.24308 | -8.67697 | 231 ft | 16 kts | 148° |
| 2026-05-06 11:25 | 41.24244 | -8.67606 | 235 ft | 14 kts | 133° |
| 2026-05-06 11:25 | 41.24135 | -8.67559 | 237 ft | 17 kts | 168° |
| 2026-05-06 11:25 | 41.24001 | -8.67524 | 237 ft | 20 kts | 168° |
| 2026-05-06 11:25 | 41.23879 | -8.67490 | 237 ft | 14 kts | 170° |
| 2026-05-06 11:26 | 41.23788 | -8.67467 | 237 ft | 13 kts | 168° |
| 2026-05-06 11:26 | 41.23729 | -8.67409 | 239 ft | 9 kts | 129° |
| 2026-05-06 11:26 | 41.23707 | -8.67368 | 242 ft | 1 kts | 108° |
| 2026-05-06 11:26 | 41.23718 | -8.67314 | 242 ft | 9 kts | 70° |
| 2026-05-06 11:27 | 41.23732 | -8.67266 | 242 ft | 2 kts | 69° |
| 2026-05-06 11:27 | 41.23732 | -8.67264 | 242 ft | 0 kts | 69° |